createdAt,value
2022-12-24T00:00:47.197Z,100.00
2022-12-24T00:03:19.787Z,100.00
2022-12-24T00:05:52.479Z,100.00
2022-12-24T00:08:25.115Z,100.00
2022-12-24T00:10:57.469Z,100.00
2022-12-24T00:13:29.964Z,100.00
2022-12-24T00:16:02.671Z,100.00
2022-12-24T00:18:39.938Z,100.00
2022-12-24T00:21:09.613Z,100.00
2022-12-24T00:23:42.468Z,100.00
2022-12-24T00:26:15.585Z,100.00
2022-12-24T00:28:47.997Z,100.00
2022-12-24T00:31:21.114Z,100.00
2022-12-24T00:33:53.635Z,100.00
2022-12-24T00:36:26.158Z,100.00
2022-12-24T00:38:58.514Z,100.00
2022-12-24T00:41:31.701Z,100.00
2022-12-24T00:44:06.597Z,100.00
2022-12-24T00:46:41.706Z,100.00
2022-12-24T00:49:13.629Z,100.00
2022-12-24T00:51:45.886Z,100.00
2022-12-24T00:54:18.355Z,100.00
2022-12-24T00:56:50.889Z,100.00
2022-12-24T00:59:23.477Z,100.00
2022-12-24T01:01:56.086Z,100.00
2022-12-24T01:04:46.393Z,100.00
2022-12-24T01:07:19.332Z,100.00
2022-12-24T01:09:52.473Z,100.00
2022-12-24T01:12:25.521Z,100.00
2022-12-24T01:14:57.846Z,100.00
2022-12-24T01:17:31.995Z,100.00
2022-12-24T01:20:05.625Z,100.00
2022-12-24T01:22:38.019Z,100.00
2022-12-24T01:25:11.052Z,100.00
2022-12-24T01:27:43.478Z,100.00
2022-12-24T01:30:16.039Z,100.00
2022-12-24T01:32:48.575Z,100.00
2022-12-24T01:35:21.130Z,100.00
2022-12-24T01:37:53.640Z,100.00
2022-12-24T01:40:45.175Z,100.00
2022-12-24T01:43:26.564Z,100.00
2022-12-24T01:46:08.157Z,100.00
2022-12-24T01:48:44.691Z,100.00
2022-12-24T01:51:43.975Z,100.00
2022-12-24T01:54:23.947Z,100.00
2022-12-24T01:57:06.333Z,100.00
2022-12-24T01:59:39.272Z,100.00
2022-12-24T02:02:11.744Z,100.00
2022-12-24T02:05:03.333Z,100.00
2022-12-24T02:07:36.167Z,100.00
2022-12-24T02:10:10.988Z,100.00
2022-12-24T02:12:43.934Z,100.00
2022-12-24T02:15:17.969Z,100.00
2022-12-24T02:18:18.038Z,100.00
2022-12-24T02:21:13.423Z,100.00
2022-12-24T02:24:29.453Z,100.00
2022-12-24T02:27:34.054Z,100.00
2022-12-24T02:30:32.863Z,100.00
2022-12-24T02:33:33.972Z,100.00
2022-12-24T02:36:13.185Z,100.00
2022-12-24T02:38:56.106Z,100.00
2022-12-24T02:41:33.181Z,100.00
2022-12-24T02:44:05.667Z,100.00
2022-12-24T02:46:38.140Z,100.00
2022-12-24T02:49:10.960Z,100.00
2022-12-24T02:51:43.357Z,100.00
2022-12-24T02:54:15.720Z,100.00
2022-12-24T02:57:23.721Z,100.00
2022-12-24T03:00:08.997Z,100.00
2022-12-24T03:02:52.143Z,100.00
2022-12-24T03:05:33.972Z,100.00
2022-12-24T03:08:30.475Z,100.00
2022-12-24T03:11:10.751Z,100.00
2022-12-24T03:13:44.080Z,100.00
2022-12-24T03:16:19.309Z,100.00
2022-12-24T03:18:51.906Z,100.00
2022-12-24T03:21:32.129Z,100.00
2022-12-24T03:24:04.691Z,100.00
2022-12-24T03:26:37.120Z,100.00
2022-12-24T03:29:10.107Z,100.00
2022-12-24T03:31:44.835Z,100.00
2022-12-24T03:34:17.444Z,100.00
2022-12-24T03:36:50.065Z,100.00
2022-12-24T03:39:23.326Z,100.00
2022-12-24T03:41:55.950Z,100.00
2022-12-24T03:44:28.582Z,100.00
2022-12-24T03:47:00.982Z,100.00
2022-12-24T03:49:33.672Z,100.00
2022-12-24T03:52:06.684Z,100.00
2022-12-24T03:54:39.269Z,100.00
2022-12-24T03:57:11.727Z,100.00
2022-12-24T03:59:44.663Z,100.00
2022-12-24T04:02:17.419Z,100.00
2022-12-24T04:04:50.024Z,100.00
2022-12-24T04:07:22.640Z,100.00
2022-12-24T04:09:55.595Z,100.00
2022-12-24T04:12:28.400Z,100.00
2022-12-24T04:15:00.791Z,100.00
2022-12-24T04:17:34.552Z,100.00
2022-12-24T04:20:08.328Z,100.00
2022-12-24T04:22:42.248Z,100.00
2022-12-24T04:25:15.612Z,100.00
2022-12-24T04:27:48.303Z,100.00
2022-12-24T04:30:20.852Z,100.00
2022-12-24T04:32:53.358Z,100.00
2022-12-24T04:35:25.768Z,100.00
2022-12-24T04:37:58.153Z,100.00
2022-12-24T04:40:30.859Z,100.00
2022-12-24T04:43:03.232Z,100.00
2022-12-24T04:45:36.387Z,100.00
2022-12-24T04:48:08.835Z,100.00
2022-12-24T04:50:41.735Z,100.00
2022-12-24T04:53:15.989Z,100.00
2022-12-24T04:55:48.476Z,100.00
2022-12-24T04:58:21.504Z,100.00
2022-12-24T05:00:54.076Z,100.00
2022-12-24T05:03:26.603Z,100.00
2022-12-24T05:06:12.110Z,100.00
2022-12-24T05:08:44.876Z,100.00
2022-12-24T05:11:17.540Z,100.00
2022-12-24T05:13:50.189Z,100.00
2022-12-24T05:16:23.137Z,100.00
2022-12-24T05:18:55.567Z,100.00
2022-12-24T05:21:28.095Z,100.00
2022-12-24T05:24:18.533Z,100.00
2022-12-24T05:26:55.145Z,100.00
2022-12-24T05:29:28.020Z,100.00
2022-12-24T05:32:00.497Z,100.00
2022-12-24T05:34:32.940Z,100.00
2022-12-24T05:37:05.282Z,100.00
2022-12-24T05:39:38.476Z,100.00
2022-12-24T05:42:10.923Z,100.00
2022-12-24T05:44:43.352Z,100.00
2022-12-24T05:47:16.855Z,100.00
2022-12-24T05:49:49.201Z,100.00
2022-12-24T05:52:22.253Z,100.00
2022-12-24T05:54:54.742Z,100.00
2022-12-24T05:57:27.178Z,100.00
2022-12-24T05:59:59.503Z,100.00
2022-12-24T06:02:32.040Z,100.00
2022-12-24T06:05:04.759Z,100.00
2022-12-24T06:07:37.339Z,100.00
2022-12-24T06:10:10.646Z,100.00
2022-12-24T06:12:43.487Z,100.00
2022-12-24T06:15:21.942Z,100.00
2022-12-24T06:17:50.058Z,100.00
2022-12-24T06:20:22.463Z,100.00
2022-12-24T06:22:55.161Z,100.00
2022-12-24T06:25:27.539Z,100.00
2022-12-24T06:28:00.076Z,100.00
2022-12-24T06:30:32.644Z,100.00
2022-12-24T06:33:05.375Z,100.00
2022-12-24T06:35:38.085Z,100.00
2022-12-24T06:38:10.945Z,100.00
2022-12-24T06:40:44.678Z,100.00
2022-12-24T06:43:18.406Z,100.00
2022-12-24T06:45:50.850Z,100.00
2022-12-24T06:48:23.308Z,100.00
2022-12-24T06:50:55.613Z,100.00
2022-12-24T06:53:28.028Z,100.00
2022-12-24T06:56:08.173Z,100.00
2022-12-24T06:58:40.877Z,100.00
2022-12-24T07:01:15.765Z,100.00
2022-12-24T07:03:48.296Z,100.00
2022-12-24T07:06:26.843Z,100.00
2022-12-24T07:08:59.359Z,100.00
2022-12-24T07:11:31.903Z,100.00
2022-12-24T07:14:04.716Z,100.00
2022-12-24T07:16:37.211Z,100.00
2022-12-24T07:19:09.753Z,100.00
2022-12-24T07:21:42.229Z,100.00
2022-12-24T07:24:14.837Z,100.00
2022-12-24T07:26:47.193Z,100.00
2022-12-24T07:29:19.754Z,100.00
2022-12-24T07:31:52.229Z,100.00
2022-12-24T07:34:25.454Z,100.00
2022-12-24T07:36:58.182Z,100.00
2022-12-24T07:39:30.707Z,100.00
2022-12-24T07:42:04.875Z,100.00
2022-12-24T07:44:38.292Z,100.00
2022-12-24T07:47:10.736Z,100.00
2022-12-24T07:49:43.133Z,100.00
2022-12-24T07:52:15.571Z,99.90
2022-12-24T07:54:48.446Z,99.67
2022-12-24T07:57:20.957Z,99.60
2022-12-24T07:59:53.466Z,99.36
2022-12-24T08:02:26.059Z,99.13
2022-12-24T08:04:58.667Z,99.24
2022-12-24T08:07:31.027Z,99.32
2022-12-24T08:10:03.502Z,99.30
2022-12-24T08:12:36.040Z,99.23
2022-12-24T08:15:09.461Z,99.39
2022-12-24T08:17:41.882Z,99.64
2022-12-24T08:20:16.181Z,99.88
2022-12-24T08:22:48.691Z,100.00
2022-12-24T08:25:21.779Z,100.00
2022-12-24T08:27:54.313Z,100.00
2022-12-24T08:30:26.709Z,100.00
2022-12-24T08:33:00.065Z,100.00
2022-12-24T08:35:32.638Z,100.00
2022-12-24T08:38:05.348Z,100.00
2022-12-24T08:40:37.798Z,100.00
2022-12-24T08:43:10.282Z,100.00
2022-12-24T08:45:42.960Z,100.00
2022-12-24T08:48:15.449Z,100.00
2022-12-24T08:50:48.012Z,100.00
2022-12-24T08:53:21.766Z,100.00
2022-12-24T08:55:56.337Z,99.97
2022-12-24T08:58:28.969Z,99.65
2022-12-24T09:01:01.596Z,99.43
2022-12-24T09:03:34.322Z,99.22
2022-12-24T09:06:08.027Z,98.39
2022-12-24T09:08:40.804Z,97.91
2022-12-24T09:11:17.983Z,97.73
2022-12-24T09:13:50.679Z,97.62
2022-12-24T09:16:23.129Z,97.54
2022-12-24T09:18:55.559Z,97.43
2022-12-24T09:21:28.386Z,97.33
2022-12-24T09:24:01.407Z,97.20
2022-12-24T09:26:34.183Z,97.10
2022-12-24T09:29:06.476Z,96.65
2022-12-24T09:31:39.918Z,96.26
2022-12-24T09:34:12.351Z,95.91
2022-12-24T09:36:46.336Z,96.44
2022-12-24T09:39:18.926Z,96.44
2022-12-24T09:42:25.383Z,96.03
2022-12-24T09:45:17.581Z,95.46
2022-12-24T09:47:56.224Z,95.34
2022-12-24T09:50:42.264Z,95.18
2022-12-24T09:53:22.229Z,95.28
2022-12-24T09:55:58.364Z,95.40
2022-12-24T09:58:40.953Z,95.64
2022-12-24T10:01:17.923Z,96.10
2022-12-24T10:03:50.357Z,96.30
2022-12-24T10:06:33.030Z,96.50
2022-12-24T10:09:10.752Z,96.99
2022-12-24T10:12:04.256Z,96.67
2022-12-24T10:15:09.786Z,96.76
2022-12-24T10:17:55.768Z,97.58
2022-12-24T10:20:44.987Z,97.63
2022-12-24T10:23:31.884Z,97.40
2022-12-24T10:26:21.093Z,96.55
2022-12-24T10:29:11.642Z,96.06
2022-12-24T10:32:10.529Z,96.77
2022-12-24T10:34:49.441Z,97.29
2022-12-24T10:37:26.488Z,96.91
2022-12-24T10:40:00.216Z,97.31
2022-12-24T10:42:53.723Z,97.35
2022-12-24T10:45:30.506Z,97.45
2022-12-24T10:48:12.084Z,96.92
2022-12-24T10:51:05.728Z,97.16
2022-12-24T10:54:00.553Z,96.53
2022-12-24T10:56:33.342Z,96.07
2022-12-24T10:59:05.788Z,96.46
2022-12-24T11:01:47.272Z,96.06
2022-12-24T11:04:32.621Z,95.97
2022-12-24T11:07:07.809Z,95.54
2022-12-24T11:09:43.516Z,96.24
2022-12-24T11:12:28.446Z,95.48
2022-12-24T11:15:05.037Z,95.30
2022-12-24T11:17:37.693Z,94.82
2022-12-24T11:20:21.708Z,94.33
2022-12-24T11:22:54.568Z,93.66
2022-12-24T11:25:31.926Z,93.51
2022-12-24T11:28:13.921Z,93.15
2022-12-24T11:31:06.975Z,92.47
2022-12-24T11:33:53.525Z,92.56
2022-12-24T11:36:27.774Z,92.69
2022-12-24T11:39:00.574Z,92.50
2022-12-24T11:41:39.705Z,92.84
2022-12-24T11:44:12.770Z,92.62
2022-12-24T11:46:47.364Z,92.55
2022-12-24T11:49:40.293Z,92.73
2022-12-24T11:52:20.091Z,93.04
2022-12-24T11:55:24.055Z,93.36
2022-12-24T11:58:19.244Z,93.73
2022-12-24T12:00:52.682Z,94.01
2022-12-24T12:03:48.025Z,94.54
2022-12-24T12:06:28.852Z,95.05
2022-12-24T12:09:07.981Z,95.20
2022-12-24T12:11:41.513Z,95.54
2022-12-24T12:14:30.887Z,96.69
2022-12-24T12:17:19.839Z,97.25
2022-12-24T12:20:12.476Z,97.63
2022-12-24T12:23:11.051Z,98.34
2022-12-24T12:25:57.432Z,98.95
2022-12-24T12:29:07.045Z,99.44
2022-12-24T12:31:45.917Z,99.79
2022-12-24T12:34:33.942Z,100.00
2022-12-24T12:37:18.526Z,100.00
2022-12-24T12:39:50.893Z,100.00
2022-12-24T12:42:38.255Z,100.00
2022-12-24T12:45:38.136Z,100.00
2022-12-24T12:48:18.600Z,100.00
2022-12-24T12:51:09.975Z,100.00
2022-12-24T12:54:16.475Z,100.00
2022-12-24T12:56:52.489Z,100.00
2022-12-24T12:59:33.747Z,100.00
2022-12-24T13:02:42.803Z,100.00
2022-12-24T13:05:53.165Z,100.00
2022-12-24T13:09:11.505Z,100.00
2022-12-24T13:12:08.360Z,100.00
2022-12-24T13:15:14.594Z,100.00
2022-12-24T13:17:54.680Z,100.00
2022-12-24T13:20:34.517Z,100.00
2022-12-24T13:23:17.006Z,100.00
2022-12-24T13:25:52.529Z,100.00
2022-12-24T13:28:29.744Z,100.00
2022-12-24T13:31:23.686Z,100.00
2022-12-24T13:33:58.767Z,100.00
2022-12-24T13:36:58.665Z,100.00
2022-12-24T13:39:31.755Z,100.00
2022-12-24T13:42:04.100Z,100.00
2022-12-24T13:44:36.444Z,100.00
2022-12-24T13:47:25.345Z,100.00
2022-12-24T13:49:55.460Z,100.00
2022-12-24T13:52:30.953Z,100.00
2022-12-24T13:55:15.821Z,100.00
2022-12-24T13:58:05.202Z,100.00
2022-12-24T14:00:55.632Z,100.00
2022-12-24T14:03:40.440Z,100.00
2022-12-24T14:06:28.638Z,100.00
2022-12-24T14:09:11.049Z,100.00
2022-12-24T14:12:06.753Z,100.00
2022-12-24T14:14:42.254Z,100.00
2022-12-24T14:17:29.970Z,100.00
2022-12-24T14:20:03.255Z,100.00
2022-12-24T14:22:42.203Z,100.00
2022-12-24T14:25:23.240Z,100.00
2022-12-24T14:28:07.716Z,100.00
2022-12-24T14:30:40.082Z,100.00
2022-12-24T14:33:33.471Z,100.00
2022-12-24T14:36:06.166Z,100.00
2022-12-24T14:38:40.738Z,100.00
2022-12-24T14:41:33.328Z,100.00
2022-12-24T14:44:35.647Z,100.00
2022-12-24T14:47:22.374Z,100.00
2022-12-24T14:50:37.834Z,100.00
2022-12-24T14:53:48.985Z,100.00
2022-12-24T14:56:24.008Z,100.00
2022-12-24T14:58:58.425Z,100.00
2022-12-24T15:01:34.361Z,100.00
2022-12-24T15:04:13.775Z,100.00
2022-12-24T15:06:53.251Z,100.00
2022-12-24T15:09:29.781Z,100.00
2022-12-24T15:12:04.546Z,100.00
2022-12-24T15:14:41.942Z,100.00
2022-12-24T15:17:16.525Z,100.00
2022-12-24T15:19:50.409Z,100.00
2022-12-24T15:22:31.159Z,100.00
2022-12-24T15:25:03.763Z,100.00
2022-12-24T15:27:37.745Z,100.00
2022-12-24T15:30:20.338Z,100.00
2022-12-24T15:32:57.229Z,100.00
2022-12-24T15:35:50.208Z,100.00
2022-12-24T15:38:34.233Z,100.00
2022-12-24T15:41:27.664Z,100.00
2022-12-24T15:44:04.454Z,100.00
2022-12-24T15:46:37.606Z,100.00
2022-12-24T15:49:14.457Z,100.00
2022-12-24T15:51:46.874Z,100.00
2022-12-24T15:54:22.306Z,100.00
2022-12-24T15:56:54.634Z,100.00
2022-12-24T15:59:38.643Z,100.00
2022-12-24T16:02:45.560Z,100.00
2022-12-24T16:05:34.104Z,100.00
2022-12-24T16:08:20.858Z,100.00
2022-12-24T16:11:09.867Z,100.00
2022-12-24T16:14:13.972Z,100.00
2022-12-24T16:16:52.950Z,100.00
2022-12-24T16:19:40.054Z,100.00
2022-12-24T16:22:26.707Z,100.00
2022-12-24T16:25:00.652Z,100.00
2022-12-24T16:27:32.878Z,100.00
2022-12-24T16:30:05.428Z,100.00
2022-12-24T16:32:38.481Z,100.00
2022-12-24T16:35:29.973Z,100.00
2022-12-24T16:38:02.370Z,100.00
2022-12-24T16:40:34.894Z,100.00
2022-12-24T16:43:25.162Z,100.00
2022-12-24T16:46:03.474Z,100.00
2022-12-24T16:48:37.400Z,100.00
2022-12-24T16:51:10.075Z,100.00
2022-12-24T16:53:42.847Z,100.00
2022-12-24T16:56:16.925Z,100.00
2022-12-24T16:58:49.348Z,100.00
2022-12-24T17:01:22.254Z,100.00
2022-12-24T17:03:55.434Z,100.00
2022-12-24T17:06:28.066Z,100.00
2022-12-24T17:09:01.489Z,100.00
2022-12-24T17:11:35.067Z,100.00
2022-12-24T17:14:08.963Z,100.00
2022-12-24T17:16:42.097Z,100.00
2022-12-24T17:19:14.462Z,100.00
2022-12-24T17:21:48.956Z,100.00
2022-12-24T17:24:21.294Z,100.00
2022-12-24T17:26:54.216Z,100.00
2022-12-24T17:29:26.696Z,100.00
2022-12-24T17:31:59.125Z,100.00
2022-12-24T17:34:31.416Z,100.00
2022-12-24T17:37:04.218Z,100.00
2022-12-24T17:39:36.618Z,100.00
2022-12-24T17:42:09.027Z,100.00
2022-12-24T17:44:41.594Z,100.00
2022-12-24T17:47:14.307Z,100.00
2022-12-24T17:49:46.817Z,100.00
2022-12-24T17:52:19.347Z,100.00
2022-12-24T17:54:51.933Z,100.00
2022-12-24T17:57:24.430Z,100.00
2022-12-24T17:59:57.639Z,100.00
2022-12-24T18:02:30.479Z,100.00
2022-12-24T18:05:04.575Z,100.00
2022-12-24T18:07:37.626Z,100.00
2022-12-24T18:10:11.667Z,100.00
2022-12-24T18:12:45.423Z,100.00
2022-12-24T18:15:22.844Z,100.00
2022-12-24T18:17:56.179Z,100.00
2022-12-24T18:20:28.615Z,100.00
2022-12-24T18:23:01.126Z,100.00
2022-12-24T18:25:33.516Z,100.00
2022-12-24T18:28:06.248Z,100.00
2022-12-24T18:30:38.826Z,100.00
2022-12-24T18:33:11.311Z,100.00
2022-12-24T18:35:43.854Z,100.00
2022-12-24T18:38:17.250Z,100.00
2022-12-24T18:40:49.792Z,100.00
2022-12-24T18:43:22.787Z,100.00
2022-12-24T18:45:55.534Z,100.00
2022-12-24T18:48:28.186Z,100.00
2022-12-24T18:51:01.513Z,100.00
2022-12-24T18:53:34.306Z,100.00
2022-12-24T18:56:09.113Z,100.00
2022-12-24T18:58:42.457Z,100.00
2022-12-24T19:01:21.646Z,100.00
2022-12-24T19:03:54.214Z,100.00
2022-12-24T19:06:27.691Z,100.00
2022-12-24T19:09:01.498Z,100.00
2022-12-24T19:11:35.235Z,100.00
2022-12-24T19:14:08.478Z,100.00
2022-12-24T19:16:41.990Z,100.00
2022-12-24T19:19:14.473Z,100.00
2022-12-24T19:21:47.530Z,100.00
2022-12-24T19:24:20.546Z,100.00
2022-12-24T19:26:52.925Z,100.00
2022-12-24T19:29:25.878Z,100.00
2022-12-24T19:31:58.374Z,100.00
2022-12-24T19:34:30.887Z,100.00
2022-12-24T19:37:03.772Z,100.00
2022-12-24T19:39:37.027Z,100.00
2022-12-24T19:42:09.526Z,100.00
2022-12-24T19:44:42.039Z,100.00
2022-12-24T19:47:14.345Z,100.00
2022-12-24T19:49:46.740Z,100.00
2022-12-24T19:52:19.238Z,100.00
2022-12-24T19:54:51.872Z,100.00
2022-12-24T19:57:24.286Z,100.00
2022-12-24T19:59:57.344Z,100.00
2022-12-24T20:02:29.924Z,100.00
2022-12-24T20:05:02.398Z,100.00
2022-12-24T20:07:35.647Z,100.00
2022-12-24T20:10:09.507Z,100.00
2022-12-24T20:12:42.315Z,100.00
2022-12-24T20:15:14.616Z,100.00
2022-12-24T20:17:48.667Z,100.00
2022-12-24T20:20:22.260Z,100.00
2022-12-24T20:22:54.543Z,100.00
2022-12-24T20:25:26.895Z,100.00
2022-12-24T20:27:59.908Z,100.00
2022-12-24T20:30:32.729Z,100.00
2022-12-24T20:33:05.324Z,100.00
2022-12-24T20:35:38.882Z,100.00
2022-12-24T20:38:11.542Z,100.00
2022-12-24T20:40:47.153Z,100.00
2022-12-24T20:43:24.109Z,100.00
2022-12-24T20:45:56.943Z,100.00
2022-12-24T20:48:31.267Z,100.00
2022-12-24T20:51:25.570Z,100.00
2022-12-24T20:54:00.393Z,100.00
2022-12-24T20:56:33.000Z,100.00
2022-12-24T20:59:05.437Z,100.00
2022-12-24T21:01:39.076Z,100.00
2022-12-24T21:04:12.483Z,100.00
2022-12-24T21:06:45.086Z,100.00
2022-12-24T21:09:17.893Z,100.00
2022-12-24T21:11:50.441Z,100.00
2022-12-24T21:14:25.507Z,100.00
2022-12-24T21:16:58.483Z,100.00
2022-12-24T21:19:30.866Z,100.00
2022-12-24T21:22:04.580Z,100.00
2022-12-24T21:24:37.684Z,100.00
2022-12-24T21:27:10.624Z,100.00
2022-12-24T21:29:43.027Z,100.00
2022-12-24T21:32:15.543Z,100.00
2022-12-24T21:34:48.283Z,100.00
2022-12-24T21:37:21.554Z,100.00
2022-12-24T21:39:53.967Z,100.00
2022-12-24T21:42:26.715Z,100.00
2022-12-24T21:44:59.327Z,100.00
2022-12-24T21:47:31.837Z,100.00
2022-12-24T21:50:26.718Z,100.00
2022-12-24T21:52:58.466Z,100.00
2022-12-24T21:55:30.474Z,100.00
2022-12-24T21:58:02.945Z,100.00
2022-12-24T22:00:37.045Z,100.00
2022-12-24T22:03:09.644Z,100.00
2022-12-24T22:05:42.464Z,100.00
2022-12-24T22:08:34.029Z,100.00
2022-12-24T22:11:24.975Z,100.00
2022-12-24T22:13:57.520Z,100.00
2022-12-24T22:16:30.502Z,100.00
2022-12-24T22:19:03.023Z,100.00
2022-12-24T22:21:36.607Z,100.00
2022-12-24T22:24:30.715Z,100.00
2022-12-24T22:27:04.101Z,100.00
2022-12-24T22:29:36.503Z,100.00
2022-12-24T22:32:08.967Z,100.00
2022-12-24T22:34:41.508Z,100.00
2022-12-24T22:37:13.945Z,100.00
2022-12-24T22:39:46.648Z,100.00
2022-12-24T22:42:19.253Z,100.00
2022-12-24T22:44:51.626Z,100.00
2022-12-24T22:47:24.686Z,100.00
2022-12-24T22:49:57.192Z,100.00
2022-12-24T22:52:29.563Z,100.00
2022-12-24T22:55:02.523Z,100.00
2022-12-24T22:57:35.141Z,100.00
2022-12-24T23:00:15.534Z,100.00
2022-12-24T23:02:48.266Z,100.00
2022-12-24T23:05:20.921Z,100.00
2022-12-24T23:07:53.759Z,100.00
2022-12-24T23:10:26.361Z,100.00
2022-12-24T23:13:16.640Z,100.00
2022-12-24T23:15:49.106Z,100.00
2022-12-24T23:18:21.560Z,100.00
2022-12-24T23:20:53.989Z,100.00
2022-12-24T23:23:29.641Z,100.00
2022-12-24T23:26:06.431Z,100.00
2022-12-24T23:28:39.668Z,100.00
2022-12-24T23:31:13.101Z,100.00
2022-12-24T23:33:45.620Z,100.00
2022-12-24T23:36:18.211Z,100.00
2022-12-24T23:38:51.590Z,100.00
2022-12-24T23:41:24.796Z,100.00
2022-12-24T23:43:57.308Z,100.00
2022-12-24T23:46:30.409Z,100.00
2022-12-24T23:49:03.246Z,100.00
2022-12-24T23:51:35.669Z,100.00
2022-12-24T23:54:08.224Z,100.00
2022-12-24T23:56:41.067Z,100.00
2022-12-24T23:59:13.813Z,100.00
